sensor_id;sensor_type;location;lat;lon;timestamp;P1;durP1;ratioP1;P2;durP2;ratioP2
67751;SDS011;54551;51.068;5.826;2022-07-06T00:00:33;3.23;;;2.80;;
67751;SDS011;54551;51.068;5.826;2022-07-06T00:02:59;4.57;;;2.97;;
67751;SDS011;54551;51.068;5.826;2022-07-06T00:05:25;4.50;;;2.87;;
67751;SDS011;54551;51.068;5.826;2022-07-06T00:07:51;3.37;;;2.47;;
67751;SDS011;54551;51.068;5.826;2022-07-06T00:10:17;3.33;;;2.63;;
67751;SDS011;54551;51.068;5.826;2022-07-06T00:12:43;4.70;;;2.77;;
67751;SDS011;54551;51.068;5.826;2022-07-06T00:15:09;3.30;;;2.73;;
67751;SDS011;54551;51.068;5.826;2022-07-06T00:17:35;5.37;;;2.77;;
67751;SDS011;54551;51.068;5.826;2022-07-06T00:20:01;3.43;;;2.50;;
67751;SDS011;54551;51.068;5.826;2022-07-06T00:22:27;3.83;;;2.57;;
67751;SDS011;54551;51.068;5.826;2022-07-06T00:24:52;3.00;;;2.40;;
67751;SDS011;54551;51.068;5.826;2022-07-06T00:27:18;5.13;;;2.50;;
67751;SDS011;54551;51.068;5.826;2022-07-06T00:29:47;3.60;;;2.80;;
67751;SDS011;54551;51.068;5.826;2022-07-06T00:32:13;3.77;;;2.67;;
67751;SDS011;54551;51.068;5.826;2022-07-06T00:34:39;4.13;;;2.67;;
67751;SDS011;54551;51.068;5.826;2022-07-06T00:37:05;3.33;;;3.00;;
67751;SDS011;54551;51.068;5.826;2022-07-06T00:39:32;4.43;;;2.73;;
67751;SDS011;54551;51.068;5.826;2022-07-06T00:41:59;3.17;;;2.50;;
67751;SDS011;54551;51.068;5.826;2022-07-06T00:44:25;4.60;;;2.90;;
67751;SDS011;54551;51.068;5.826;2022-07-06T00:46:51;4.43;;;3.00;;
67751;SDS011;54551;51.068;5.826;2022-07-06T00:49:17;3.53;;;2.87;;
67751;SDS011;54551;51.068;5.826;2022-07-06T00:52:02;4.50;;;2.70;;
67751;SDS011;54551;51.068;5.826;2022-07-06T00:54:29;6.43;;;3.53;;
67751;SDS011;54551;51.068;5.826;2022-07-06T00:56:57;4.53;;;2.90;;
67751;SDS011;54551;51.068;5.826;2022-07-06T00:59:24;3.57;;;2.70;;
67751;SDS011;54551;51.068;5.826;2022-07-06T01:01:50;5.23;;;3.10;;
67751;SDS011;54551;51.068;5.826;2022-07-06T01:04:16;3.73;;;3.33;;
67751;SDS011;54551;51.068;5.826;2022-07-06T01:06:42;3.27;;;3.00;;
67751;SDS011;54551;51.068;5.826;2022-07-06T01:09:12;4.40;;;3.47;;
67751;SDS011;54551;51.068;5.826;2022-07-06T01:11:38;5.00;;;3.60;;
67751;SDS011;54551;51.068;5.826;2022-07-06T01:14:05;4.77;;;3.40;;
67751;SDS011;54551;51.068;5.826;2022-07-06T01:16:32;4.77;;;3.17;;
67751;SDS011;54551;51.068;5.826;2022-07-06T01:18:58;4.97;;;3.07;;
67751;SDS011;54551;51.068;5.826;2022-07-06T01:21:24;4.30;;;3.40;;
67751;SDS011;54551;51.068;5.826;2022-07-06T01:23:50;4.33;;;3.37;;
67751;SDS011;54551;51.068;5.826;2022-07-06T01:26:17;3.73;;;3.30;;
67751;SDS011;54551;51.068;5.826;2022-07-06T01:28:45;4.00;;;3.20;;
67751;SDS011;54551;51.068;5.826;2022-07-06T01:31:21;5.80;;;3.40;;
67751;SDS011;54551;51.068;5.826;2022-07-06T01:33:50;4.20;;;3.80;;
67751;SDS011;54551;51.068;5.826;2022-07-06T01:36:18;3.60;;;3.30;;
67751;SDS011;54551;51.068;5.826;2022-07-06T01:38:44;4.37;;;3.50;;
67751;SDS011;54551;51.068;5.826;2022-07-06T01:41:11;3.90;;;3.50;;
67751;SDS011;54551;51.068;5.826;2022-07-06T01:43:38;4.37;;;3.73;;
67751;SDS011;54551;51.068;5.826;2022-07-06T01:46:04;5.47;;;3.40;;
67751;SDS011;54551;51.068;5.826;2022-07-06T01:48:30;5.93;;;4.10;;
67751;SDS011;54551;51.068;5.826;2022-07-06T01:50:56;5.00;;;3.90;;
67751;SDS011;54551;51.068;5.826;2022-07-06T01:53:23;3.83;;;3.33;;
67751;SDS011;54551;51.068;5.826;2022-07-06T01:55:49;4.73;;;4.10;;
67751;SDS011;54551;51.068;5.826;2022-07-06T01:58:15;5.70;;;4.13;;
67751;SDS011;54551;51.068;5.826;2022-07-06T02:00:41;6.67;;;4.30;;
67751;SDS011;54551;51.068;5.826;2022-07-06T02:03:07;5.67;;;4.20;;
67751;SDS011;54551;51.068;5.826;2022-07-06T02:05:36;6.23;;;4.10;;
67751;SDS011;54551;51.068;5.826;2022-07-06T02:08:03;4.10;;;3.70;;
67751;SDS011;54551;51.068;5.826;2022-07-06T02:10:31;6.53;;;4.50;;
67751;SDS011;54551;51.068;5.826;2022-07-06T02:12:57;4.87;;;4.23;;
67751;SDS011;54551;51.068;5.826;2022-07-06T02:15:23;6.47;;;4.50;;
67751;SDS011;54551;51.068;5.826;2022-07-06T02:17:49;4.60;;;4.20;;
67751;SDS011;54551;51.068;5.826;2022-07-06T02:20:15;5.27;;;4.00;;
67751;SDS011;54551;51.068;5.826;2022-07-06T02:22:41;5.97;;;5.20;;
67751;SDS011;54551;51.068;5.826;2022-07-06T02:25:07;4.93;;;4.43;;
67751;SDS011;54551;51.068;5.826;2022-07-06T02:27:34;5.50;;;5.00;;
67751;SDS011;54551;51.068;5.826;2022-07-06T02:30:04;5.57;;;4.73;;
67751;SDS011;54551;51.068;5.826;2022-07-06T02:32:31;8.57;;;4.90;;
67751;SDS011;54551;51.068;5.826;2022-07-06T02:34:58;6.67;;;4.70;;
67751;SDS011;54551;51.068;5.826;2022-07-06T02:37:25;5.43;;;4.90;;
67751;SDS011;54551;51.068;5.826;2022-07-06T02:39:51;6.37;;;5.07;;
67751;SDS011;54551;51.068;5.826;2022-07-06T02:42:17;6.20;;;4.90;;
67751;SDS011;54551;51.068;5.826;2022-07-06T02:44:43;6.87;;;5.70;;
67751;SDS011;54551;51.068;5.826;2022-07-06T02:47:09;5.60;;;4.90;;
67751;SDS011;54551;51.068;5.826;2022-07-06T02:49:35;6.27;;;5.67;;
67751;SDS011;54551;51.068;5.826;2022-07-06T02:52:01;7.93;;;5.47;;
67751;SDS011;54551;51.068;5.826;2022-07-06T02:54:30;6.03;;;5.40;;
67751;SDS011;54551;51.068;5.826;2022-07-06T02:56:56;7.40;;;5.30;;
67751;SDS011;54551;51.068;5.826;2022-07-06T02:59:22;6.60;;;5.20;;
67751;SDS011;54551;51.068;5.826;2022-07-06T03:01:48;8.90;;;5.50;;
67751;SDS011;54551;51.068;5.826;2022-07-06T03:04:15;7.93;;;5.50;;
67751;SDS011;54551;51.068;5.826;2022-07-06T03:06:42;5.83;;;5.23;;
67751;SDS011;54551;51.068;5.826;2022-07-06T03:09:09;7.57;;;6.13;;
67751;SDS011;54551;51.068;5.826;2022-07-06T03:11:37;7.27;;;5.70;;
67751;SDS011;54551;51.068;5.826;2022-07-06T03:14:04;5.50;;;5.00;;
67751;SDS011;54551;51.068;5.826;2022-07-06T03:16:32;6.87;;;5.20;;
67751;SDS011;54551;51.068;5.826;2022-07-06T03:18:58;8.43;;;5.63;;
67751;SDS011;54551;51.068;5.826;2022-07-06T03:21:24;7.33;;;5.93;;
67751;SDS011;54551;51.068;5.826;2022-07-06T03:23:50;7.50;;;6.00;;
67751;SDS011;54551;51.068;5.826;2022-07-06T03:26:16;6.47;;;5.83;;
67751;SDS011;54551;51.068;5.826;2022-07-06T03:28:43;8.77;;;6.27;;
67751;SDS011;54551;51.068;5.826;2022-07-06T03:31:09;8.50;;;5.90;;
67751;SDS011;54551;51.068;5.826;2022-07-06T03:33:35;6.87;;;6.17;;
67751;SDS011;54551;51.068;5.826;2022-07-06T03:36:01;7.97;;;6.70;;
67751;SDS011;54551;51.068;5.826;2022-07-06T03:38:28;7.20;;;6.03;;
67751;SDS011;54551;51.068;5.826;2022-07-06T03:40:54;7.07;;;6.47;;
67751;SDS011;54551;51.068;5.826;2022-07-06T03:43:20;7.03;;;6.40;;
67751;SDS011;54551;51.068;5.826;2022-07-06T03:45:46;7.07;;;6.37;;
67751;SDS011;54551;51.068;5.826;2022-07-06T03:48:12;8.63;;;6.67;;
67751;SDS011;54551;51.068;5.826;2022-07-06T03:50:40;9.83;;;6.30;;
67751;SDS011;54551;51.068;5.826;2022-07-06T03:53:06;6.77;;;6.07;;
67751;SDS011;54551;51.068;5.826;2022-07-06T03:55:33;8.00;;;6.23;;
67751;SDS011;54551;51.068;5.826;2022-07-06T03:58:03;6.43;;;5.83;;
67751;SDS011;54551;51.068;5.826;2022-07-06T04:00:29;6.80;;;6.20;;
67751;SDS011;54551;51.068;5.826;2022-07-06T04:03:01;8.73;;;6.30;;
67751;SDS011;54551;51.068;5.826;2022-07-06T04:05:31;7.40;;;6.53;;
67751;SDS011;54551;51.068;5.826;2022-07-06T04:07:57;7.00;;;6.40;;
67751;SDS011;54551;51.068;5.826;2022-07-06T04:10:30;7.97;;;6.30;;
67751;SDS011;54551;51.068;5.826;2022-07-06T04:12:57;6.80;;;6.10;;
67751;SDS011;54551;51.068;5.826;2022-07-06T04:15:23;8.73;;;6.23;;
67751;SDS011;54551;51.068;5.826;2022-07-06T04:17:49;6.87;;;6.17;;
67751;SDS011;54551;51.068;5.826;2022-07-06T04:20:22;7.80;;;6.30;;
67751;SDS011;54551;51.068;5.826;2022-07-06T04:22:49;6.97;;;5.93;;
67751;SDS011;54551;51.068;5.826;2022-07-06T04:25:16;6.93;;;6.33;;
67751;SDS011;54551;51.068;5.826;2022-07-06T04:27:42;6.33;;;5.83;;
67751;SDS011;54551;51.068;5.826;2022-07-06T04:30:09;7.90;;;5.93;;
67751;SDS011;54551;51.068;5.826;2022-07-06T04:32:35;8.07;;;5.77;;
67751;SDS011;54551;51.068;5.826;2022-07-06T04:35:02;6.70;;;6.10;;
67751;SDS011;54551;51.068;5.826;2022-07-06T04:37:29;6.83;;;5.90;;
67751;SDS011;54551;51.068;5.826;2022-07-06T04:39:55;9.50;;;5.80;;
67751;SDS011;54551;51.068;5.826;2022-07-06T04:42:22;11.17;;;6.00;;
67751;SDS011;54551;51.068;5.826;2022-07-06T04:44:48;6.63;;;5.70;;
67751;SDS011;54551;51.068;5.826;2022-07-06T04:47:14;5.67;;;5.17;;
67751;SDS011;54551;51.068;5.826;2022-07-06T04:49:41;7.60;;;5.43;;
67751;SDS011;54551;51.068;5.826;2022-07-06T04:52:07;6.40;;;5.57;;
67751;SDS011;54551;51.068;5.826;2022-07-06T04:54:33;6.97;;;5.27;;
67751;SDS011;54551;51.068;5.826;2022-07-06T04:57:00;5.67;;;4.83;;
67751;SDS011;54551;51.068;5.826;2022-07-06T04:59:26;4.77;;;4.33;;
67751;SDS011;54551;51.068;5.826;2022-07-06T05:01:52;5.47;;;4.67;;
67751;SDS011;54551;51.068;5.826;2022-07-06T05:04:18;4.90;;;4.13;;
67751;SDS011;54551;51.068;5.826;2022-07-06T05:06:45;7.87;;;4.60;;
67751;SDS011;54551;51.068;5.826;2022-07-06T05:09:12;5.33;;;4.87;;
67751;SDS011;54551;51.068;5.826;2022-07-06T05:11:39;5.97;;;4.20;;
67751;SDS011;54551;51.068;5.826;2022-07-06T05:14:06;6.73;;;4.27;;
67751;SDS011;54551;51.068;5.826;2022-07-06T05:16:32;5.63;;;4.50;;
67751;SDS011;54551;51.068;5.826;2022-07-06T05:18:59;6.00;;;4.20;;
67751;SDS011;54551;51.068;5.826;2022-07-06T05:21:25;4.73;;;3.93;;
67751;SDS011;54551;51.068;5.826;2022-07-06T05:23:51;5.77;;;4.10;;
67751;SDS011;54551;51.068;5.826;2022-07-06T05:26:17;7.27;;;3.90;;
67751;SDS011;54551;51.068;5.826;2022-07-06T05:28:44;4.57;;;3.80;;
67751;SDS011;54551;51.068;5.826;2022-07-06T05:31:17;5.13;;;3.57;;
67751;SDS011;54551;51.068;5.826;2022-07-06T05:33:42;4.67;;;3.20;;
67751;SDS011;54551;51.068;5.826;2022-07-06T05:36:08;3.80;;;3.10;;
67751;SDS011;54551;51.068;5.826;2022-07-06T05:38:35;7.17;;;3.60;;
67751;SDS011;54551;51.068;5.826;2022-07-06T05:41:01;3.83;;;3.07;;
67751;SDS011;54551;51.068;5.826;2022-07-06T05:43:27;5.17;;;3.20;;
67751;SDS011;54551;51.068;5.826;2022-07-06T05:45:55;3.77;;;3.00;;
67751;SDS011;54551;51.068;5.826;2022-07-06T05:48:23;4.40;;;2.87;;
67751;SDS011;54551;51.068;5.826;2022-07-06T05:51:08;3.90;;;3.00;;
67751;SDS011;54551;51.068;5.826;2022-07-06T05:53:34;3.10;;;2.70;;
67751;SDS011;54551;51.068;5.826;2022-07-06T05:56:00;4.53;;;3.07;;
67751;SDS011;54551;51.068;5.826;2022-07-06T05:58:29;3.67;;;3.00;;
67751;SDS011;54551;51.068;5.826;2022-07-06T06:00:57;2.93;;;2.30;;
67751;SDS011;54551;51.068;5.826;2022-07-06T06:03:23;3.20;;;2.70;;
67751;SDS011;54551;51.068;5.826;2022-07-06T06:05:50;5.03;;;2.67;;
67751;SDS011;54551;51.068;5.826;2022-07-06T06:08:18;4.37;;;2.47;;
67751;SDS011;54551;51.068;5.826;2022-07-06T06:10:44;3.77;;;2.33;;
67751;SDS011;54551;51.068;5.826;2022-07-06T06:13:13;3.33;;;2.40;;
67751;SDS011;54551;51.068;5.826;2022-07-06T06:15:39;2.93;;;2.30;;
67751;SDS011;54551;51.068;5.826;2022-07-06T06:18:06;3.27;;;2.20;;
67751;SDS011;54551;51.068;5.826;2022-07-06T06:20:32;3.30;;;2.37;;
67751;SDS011;54551;51.068;5.826;2022-07-06T06:22:58;2.10;;;1.80;;
67751;SDS011;54551;51.068;5.826;2022-07-06T06:25:29;2.17;;;1.60;;
67751;SDS011;54551;51.068;5.826;2022-07-06T06:28:00;2.37;;;1.60;;
67751;SDS011;54551;51.068;5.826;2022-07-06T06:30:27;4.70;;;1.80;;
67751;SDS011;54551;51.068;5.826;2022-07-06T06:33:09;2.63;;;1.53;;
67751;SDS011;54551;51.068;5.826;2022-07-06T06:35:37;2.03;;;1.70;;
67751;SDS011;54551;51.068;5.826;2022-07-06T06:38:06;3.40;;;1.80;;
67751;SDS011;54551;51.068;5.826;2022-07-06T06:40:32;2.40;;;1.67;;
67751;SDS011;54551;51.068;5.826;2022-07-06T06:42:58;4.23;;;2.10;;
67751;SDS011;54551;51.068;5.826;2022-07-06T06:45:25;1.90;;;1.60;;
67751;SDS011;54551;51.068;5.826;2022-07-06T06:47:51;2.87;;;1.60;;
67751;SDS011;54551;51.068;5.826;2022-07-06T06:50:17;3.53;;;1.80;;
67751;SDS011;54551;51.068;5.826;2022-07-06T06:52:43;1.80;;;1.57;;
67751;SDS011;54551;51.068;5.826;2022-07-06T06:55:09;2.40;;;1.40;;
67751;SDS011;54551;51.068;5.826;2022-07-06T06:57:35;1.53;;;1.43;;
67751;SDS011;54551;51.068;5.826;2022-07-06T07:00:02;2.33;;;1.43;;
67751;SDS011;54551;51.068;5.826;2022-07-06T07:02:28;2.40;;;1.63;;
67751;SDS011;54551;51.068;5.826;2022-07-06T07:04:54;3.80;;;1.23;;
67751;SDS011;54551;51.068;5.826;2022-07-06T07:07:20;1.97;;;1.30;;
67751;SDS011;54551;51.068;5.826;2022-07-06T07:09:46;1.97;;;1.50;;
67751;SDS011;54551;51.068;5.826;2022-07-06T07:12:12;1.00;;;0.90;;
67751;SDS011;54551;51.068;5.826;2022-07-06T07:14:40;2.30;;;1.40;;
67751;SDS011;54551;51.068;5.826;2022-07-06T07:17:06;1.63;;;1.30;;
67751;SDS011;54551;51.068;5.826;2022-07-06T07:19:32;3.27;;;1.50;;
67751;SDS011;54551;51.068;5.826;2022-07-06T07:21:58;1.30;;;1.07;;
67751;SDS011;54551;51.068;5.826;2022-07-06T07:24:24;2.87;;;1.13;;
67751;SDS011;54551;51.068;5.826;2022-07-06T07:26:52;3.43;;;1.10;;
67751;SDS011;54551;51.068;5.826;2022-07-06T07:29:18;1.80;;;0.90;;
67751;SDS011;54551;51.068;5.826;2022-07-06T07:31:44;2.57;;;1.33;;
67751;SDS011;54551;51.068;5.826;2022-07-06T07:34:10;1.63;;;0.97;;
67751;SDS011;54551;51.068;5.826;2022-07-06T07:36:36;1.33;;;0.90;;
67751;SDS011;54551;51.068;5.826;2022-07-06T07:39:03;3.57;;;1.10;;
67751;SDS011;54551;51.068;5.826;2022-07-06T07:41:29;3.40;;;1.00;;
67751;SDS011;54551;51.068;5.826;2022-07-06T07:43:55;2.80;;;0.80;;
67751;SDS011;54551;51.068;5.826;2022-07-06T07:46:21;2.53;;;1.13;;
67751;SDS011;54551;51.068;5.826;2022-07-06T07:48:47;0.73;;;0.70;;
67751;SDS011;54551;51.068;5.826;2022-07-06T07:51:15;1.17;;;0.90;;
67751;SDS011;54551;51.068;5.826;2022-07-06T07:53:41;1.80;;;0.73;;
67751;SDS011;54551;51.068;5.826;2022-07-06T07:56:07;2.37;;;0.80;;
67751;SDS011;54551;51.068;5.826;2022-07-06T07:58:32;1.77;;;0.80;;
67751;SDS011;54551;51.068;5.826;2022-07-06T08:00:59;2.50;;;0.90;;
67751;SDS011;54551;51.068;5.826;2022-07-06T08:03:25;0.87;;;0.80;;
67751;SDS011;54551;51.068;5.826;2022-07-06T08:05:51;1.50;;;1.10;;
67751;SDS011;54551;51.068;5.826;2022-07-06T08:08:18;1.73;;;0.80;;
67751;SDS011;54551;51.068;5.826;2022-07-06T08:10:44;2.63;;;0.87;;
67751;SDS011;54551;51.068;5.826;2022-07-06T08:13:10;2.60;;;1.10;;
67751;SDS011;54551;51.068;5.826;2022-07-06T08:15:36;2.57;;;0.90;;
67751;SDS011;54551;51.068;5.826;2022-07-06T08:18:03;1.40;;;1.00;;
67751;SDS011;54551;51.068;5.826;2022-07-06T08:20:29;2.43;;;1.00;;
67751;SDS011;54551;51.068;5.826;2022-07-06T08:22:55;2.20;;;0.90;;
67751;SDS011;54551;51.068;5.826;2022-07-06T08:25:21;0.60;;;0.50;;
67751;SDS011;54551;51.068;5.826;2022-07-06T08:27:47;2.20;;;0.97;;
67751;SDS011;54551;51.068;5.826;2022-07-06T08:30:13;1.00;;;0.60;;
67751;SDS011;54551;51.068;5.826;2022-07-06T08:32:42;5.00;;;1.07;;
67751;SDS011;54551;51.068;5.826;2022-07-06T08:35:09;1.03;;;0.70;;
67751;SDS011;54551;51.068;5.826;2022-07-06T08:37:36;2.07;;;0.97;;
67751;SDS011;54551;51.068;5.826;2022-07-06T08:40:02;3.07;;;0.87;;
67751;SDS011;54551;51.068;5.826;2022-07-06T08:42:32;2.47;;;1.10;;
67751;SDS011;54551;51.068;5.826;2022-07-06T08:45:01;1.67;;;0.80;;
67751;SDS011;54551;51.068;5.826;2022-07-06T08:47:29;3.03;;;1.03;;
67751;SDS011;54551;51.068;5.826;2022-07-06T08:49:56;1.10;;;0.80;;
67751;SDS011;54551;51.068;5.826;2022-07-06T08:52:23;0.67;;;0.67;;
67751;SDS011;54551;51.068;5.826;2022-07-06T08:54:49;2.53;;;0.73;;
67751;SDS011;54551;51.068;5.826;2022-07-06T08:57:15;0.70;;;0.63;;
67751;SDS011;54551;51.068;5.826;2022-07-06T08:59:42;1.27;;;0.70;;
67751;SDS011;54551;51.068;5.826;2022-07-06T09:02:11;1.33;;;0.80;;
67751;SDS011;54551;51.068;5.826;2022-07-06T09:04:38;2.57;;;1.00;;
67751;SDS011;54551;51.068;5.826;2022-07-06T09:07:07;2.60;;;0.90;;
67751;SDS011;54551;51.068;5.826;2022-07-06T09:09:33;3.20;;;1.10;;
67751;SDS011;54551;51.068;5.826;2022-07-06T09:12:02;1.40;;;1.00;;
67751;SDS011;54551;51.068;5.826;2022-07-06T09:14:28;3.20;;;1.10;;
67751;SDS011;54551;51.068;5.826;2022-07-06T09:17:13;1.27;;;0.70;;
67751;SDS011;54551;51.068;5.826;2022-07-06T09:19:39;1.60;;;0.73;;
67751;SDS011;54551;51.068;5.826;2022-07-06T09:22:05;1.13;;;0.70;;
67751;SDS011;54551;51.068;5.826;2022-07-06T09:24:31;3.70;;;1.07;;
67751;SDS011;54551;51.068;5.826;2022-07-06T09:26:57;1.00;;;0.80;;
67751;SDS011;54551;51.068;5.826;2022-07-06T09:29:27;1.60;;;0.80;;
67751;SDS011;54551;51.068;5.826;2022-07-06T09:32:01;3.33;;;1.00;;
67751;SDS011;54551;51.068;5.826;2022-07-06T09:34:42;1.73;;;0.70;;
67751;SDS011;54551;51.068;5.826;2022-07-06T09:37:09;0.63;;;0.50;;
67751;SDS011;54551;51.068;5.826;2022-07-06T09:39:36;0.93;;;0.60;;
67751;SDS011;54551;51.068;5.826;2022-07-06T09:42:03;1.27;;;0.60;;
67751;SDS011;54551;51.068;5.826;2022-07-06T09:44:36;1.40;;;0.77;;
67751;SDS011;54551;51.068;5.826;2022-07-06T09:47:07;1.90;;;0.63;;
67751;SDS011;54551;51.068;5.826;2022-07-06T09:49:34;1.23;;;0.73;;
67751;SDS011;54551;51.068;5.826;2022-07-06T09:52:08;1.87;;;0.60;;
67751;SDS011;54551;51.068;5.826;2022-07-06T09:54:35;0.80;;;0.60;;
67751;SDS011;54551;51.068;5.826;2022-07-06T09:57:03;1.13;;;0.70;;
67751;SDS011;54551;51.068;5.826;2022-07-06T09:59:31;1.43;;;0.80;;
67751;SDS011;54551;51.068;5.826;2022-07-06T10:01:59;2.63;;;0.60;;
67751;SDS011;54551;51.068;5.826;2022-07-06T10:04:26;1.57;;;0.77;;
67751;SDS011;54551;51.068;5.826;2022-07-06T10:06:54;1.90;;;0.80;;
67751;SDS011;54551;51.068;5.826;2022-07-06T10:09:21;2.93;;;0.70;;
67751;SDS011;54551;51.068;5.826;2022-07-06T10:11:53;1.50;;;0.90;;
67751;SDS011;54551;51.068;5.826;2022-07-06T10:14:22;2.43;;;0.90;;
67751;SDS011;54551;51.068;5.826;2022-07-06T10:16:50;3.83;;;1.00;;
67751;SDS011;54551;51.068;5.826;2022-07-06T10:19:17;1.50;;;0.77;;
67751;SDS011;54551;51.068;5.826;2022-07-06T10:21:45;0.60;;;0.60;;
67751;SDS011;54551;51.068;5.826;2022-07-06T10:24:13;3.60;;;0.70;;
67751;SDS011;54551;51.068;5.826;2022-07-06T10:26:39;1.45;;;0.75;;
67751;SDS011;54551;51.068;5.826;2022-07-06T10:29:09;2.40;;;0.93;;
67751;SDS011;54551;51.068;5.826;2022-07-06T10:31:37;1.40;;;0.70;;
67751;SDS011;54551;51.068;5.826;2022-07-06T10:34:10;1.58;;;0.82;;
67751;SDS011;54551;51.068;5.826;2022-07-06T10:36:38;1.27;;;0.80;;
67751;SDS011;54551;51.068;5.826;2022-07-06T10:39:06;1.48;;;0.73;;
67751;SDS011;54551;51.068;5.826;2022-07-06T10:41:53;0.63;;;0.52;;
67751;SDS011;54551;51.068;5.826;2022-07-06T10:44:21;4.28;;;0.80;;
67751;SDS011;54551;51.068;5.826;2022-07-06T10:46:52;4.67;;;0.60;;
67751;SDS011;54551;51.068;5.826;2022-07-06T10:49:20;2.47;;;0.70;;
67751;SDS011;54551;51.068;5.826;2022-07-06T10:51:47;1.33;;;0.60;;
67751;SDS011;54551;51.068;5.826;2022-07-06T10:54:17;2.27;;;0.77;;
67751;SDS011;54551;51.068;5.826;2022-07-06T10:56:46;1.43;;;0.70;;
67751;SDS011;54551;51.068;5.826;2022-07-06T10:59:18;1.10;;;0.60;;
67751;SDS011;54551;51.068;5.826;2022-07-06T11:04:37;1.23;;;0.80;;
67751;SDS011;54551;51.068;5.826;2022-07-06T11:07:08;1.00;;;0.80;;
67751;SDS011;54551;51.068;5.826;2022-07-06T11:09:42;1.10;;;0.50;;
67751;SDS011;54551;51.068;5.826;2022-07-06T11:12:22;1.17;;;0.90;;
67751;SDS011;54551;51.068;5.826;2022-07-06T11:14:49;0.80;;;0.80;;
67751;SDS011;54551;51.068;5.826;2022-07-06T11:17:20;2.40;;;1.23;;
67751;SDS011;54551;51.068;5.826;2022-07-06T11:20:09;1.17;;;0.90;;
67751;SDS011;54551;51.068;5.826;2022-07-06T11:22:37;1.60;;;0.87;;
67751;SDS011;54551;51.068;5.826;2022-07-06T11:25:05;1.47;;;0.93;;
67751;SDS011;54551;51.068;5.826;2022-07-06T11:27:33;1.77;;;1.00;;
67751;SDS011;54551;51.068;5.826;2022-07-06T11:30:00;2.67;;;1.00;;
67751;SDS011;54551;51.068;5.826;2022-07-06T11:32:27;1.67;;;0.90;;
67751;SDS011;54551;51.068;5.826;2022-07-06T11:34:54;4.10;;;0.83;;
67751;SDS011;54551;51.068;5.826;2022-07-06T11:37:20;2.53;;;0.93;;
67751;SDS011;54551;51.068;5.826;2022-07-06T11:39:48;0.70;;;0.70;;
67751;SDS011;54551;51.068;5.826;2022-07-06T11:42:16;5.28;;;1.10;;
67751;SDS011;54551;51.068;5.826;2022-07-06T11:44:43;2.60;;;1.00;;
67751;SDS011;54551;51.068;5.826;2022-07-06T11:47:13;1.23;;;0.93;;
67751;SDS011;54551;51.068;5.826;2022-07-06T11:49:40;1.53;;;1.00;;
67751;SDS011;54551;51.068;5.826;2022-07-06T11:54:36;2.83;;;0.90;;
67751;SDS011;54551;51.068;5.826;2022-07-06T11:57:03;4.20;;;0.93;;
67751;SDS011;54551;51.068;5.826;2022-07-06T11:59:30;1.60;;;0.90;;
67751;SDS011;54551;51.068;5.826;2022-07-06T12:02:05;2.20;;;0.70;;
67751;SDS011;54551;51.068;5.826;2022-07-06T12:04:37;1.30;;;0.80;;
67751;SDS011;54551;51.068;5.826;2022-07-06T12:07:07;1.00;;;0.90;;
67751;SDS011;54551;51.068;5.826;2022-07-06T12:09:37;1.80;;;0.77;;
67751;SDS011;54551;51.068;5.826;2022-07-06T12:12:05;0.93;;;0.80;;
67751;SDS011;54551;51.068;5.826;2022-07-06T12:14:33;2.50;;;1.00;;
67751;SDS011;54551;51.068;5.826;2022-07-06T12:17:05;1.13;;;0.97;;
67751;SDS011;54551;51.068;5.826;2022-07-06T12:19:37;0.83;;;0.80;;
67751;SDS011;54551;51.068;5.826;2022-07-06T12:22:04;2.20;;;1.10;;
67751;SDS011;54551;51.068;5.826;2022-07-06T12:24:32;1.20;;;0.80;;
67751;SDS011;54551;51.068;5.826;2022-07-06T12:27:12;1.47;;;0.80;;
67751;SDS011;54551;51.068;5.826;2022-07-06T12:29:41;1.50;;;0.90;;
67751;SDS011;54551;51.068;5.826;2022-07-06T12:32:13;8.07;;;1.02;;
67751;SDS011;54551;51.068;5.826;2022-07-06T12:35:05;1.35;;;0.80;;
67751;SDS011;54551;51.068;5.826;2022-07-06T12:37:32;1.15;;;0.90;;
67751;SDS011;54551;51.068;5.826;2022-07-06T12:39:58;0.93;;;0.88;;
67751;SDS011;54551;51.068;5.826;2022-07-06T12:42:31;1.83;;;0.82;;
67751;SDS011;54551;51.068;5.826;2022-07-06T12:44:57;0.60;;;0.60;;
67751;SDS011;54551;51.068;5.826;2022-07-06T12:47:23;2.28;;;0.80;;
67751;SDS011;54551;51.068;5.826;2022-07-06T12:50:07;2.63;;;0.95;;
67751;SDS011;54551;51.068;5.826;2022-07-06T12:52:35;2.65;;;0.80;;
67751;SDS011;54551;51.068;5.826;2022-07-06T12:55:03;1.45;;;0.82;;
67751;SDS011;54551;51.068;5.826;2022-07-06T12:57:41;1.67;;;0.70;;
67751;SDS011;54551;51.068;5.826;2022-07-06T13:00:09;1.38;;;0.73;;
67751;SDS011;54551;51.068;5.826;2022-07-06T13:02:36;0.98;;;0.80;;
67751;SDS011;54551;51.068;5.826;2022-07-06T13:05:04;3.08;;;1.00;;
67751;SDS011;54551;51.068;5.826;2022-07-06T13:07:34;0.90;;;0.60;;
67751;SDS011;54551;51.068;5.826;2022-07-06T13:10:06;1.67;;;1.17;;
67751;SDS011;54551;51.068;5.826;2022-07-06T13:12:37;1.25;;;1.00;;
67751;SDS011;54551;51.068;5.826;2022-07-06T13:15:05;2.83;;;0.75;;
67751;SDS011;54551;51.068;5.826;2022-07-06T13:17:35;1.60;;;0.60;;
67751;SDS011;54551;51.068;5.826;2022-07-06T13:20:05;2.20;;;1.00;;
67751;SDS011;54551;51.068;5.826;2022-07-06T13:22:33;1.38;;;0.90;;
67751;SDS011;54551;51.068;5.826;2022-07-06T13:24:59;1.15;;;0.70;;
67751;SDS011;54551;51.068;5.826;2022-07-06T13:27:26;0.88;;;0.70;;
67751;SDS011;54551;51.068;5.826;2022-07-06T13:29:52;1.55;;;0.77;;
67751;SDS011;54551;51.068;5.826;2022-07-06T13:32:20;1.65;;;0.70;;
67751;SDS011;54551;51.068;5.826;2022-07-06T13:34:49;1.65;;;1.17;;
67751;SDS011;54551;51.068;5.826;2022-07-06T13:37:16;2.58;;;0.80;;
67751;SDS011;54551;51.068;5.826;2022-07-06T13:39:44;1.77;;;0.60;;
67751;SDS011;54551;51.068;5.826;2022-07-06T13:42:13;1.10;;;0.90;;
67751;SDS011;54551;51.068;5.826;2022-07-06T13:44:39;1.50;;;0.80;;
67751;SDS011;54551;51.068;5.826;2022-07-06T13:47:06;2.30;;;0.90;;
67751;SDS011;54551;51.068;5.826;2022-07-06T13:49:33;1.88;;;0.65;;
67751;SDS011;54551;51.068;5.826;2022-07-06T13:52:00;2.45;;;0.60;;
67751;SDS011;54551;51.068;5.826;2022-07-06T13:54:29;3.28;;;0.65;;
67751;SDS011;54551;51.068;5.826;2022-07-06T13:56:58;1.40;;;0.65;;
67751;SDS011;54551;51.068;5.826;2022-07-06T13:59:26;7.57;;;1.30;;
67751;SDS011;54551;51.068;5.826;2022-07-06T14:01:52;0.77;;;0.60;;
67751;SDS011;54551;51.068;5.826;2022-07-06T14:04:19;1.60;;;0.55;;
67751;SDS011;54551;51.068;5.826;2022-07-06T14:06:45;0.47;;;0.45;;
67751;SDS011;54551;51.068;5.826;2022-07-06T14:09:12;1.95;;;0.98;;
67751;SDS011;54551;51.068;5.826;2022-07-06T14:11:39;1.35;;;1.00;;
67751;SDS011;54551;51.068;5.826;2022-07-06T14:14:06;2.75;;;0.70;;
67751;SDS011;54551;51.068;5.826;2022-07-06T14:16:35;1.63;;;0.70;;
67751;SDS011;54551;51.068;5.826;2022-07-06T14:19:02;1.15;;;0.80;;
67751;SDS011;54551;51.068;5.826;2022-07-06T14:21:31;6.10;;;3.03;;
67751;SDS011;54551;51.068;5.826;2022-07-06T14:23:58;7.45;;;5.05;;
67751;SDS011;54551;51.068;5.826;2022-07-06T14:26:25;2.42;;;1.20;;
67751;SDS011;54551;51.068;5.826;2022-07-06T14:28:52;1.05;;;0.80;;
67751;SDS011;54551;51.068;5.826;2022-07-06T14:31:22;1.73;;;0.95;;
67751;SDS011;54551;51.068;5.826;2022-07-06T14:33:54;1.30;;;0.98;;
67751;SDS011;54551;51.068;5.826;2022-07-06T14:36:21;0.70;;;0.70;;
67751;SDS011;54551;51.068;5.826;2022-07-06T14:38:50;1.67;;;0.90;;
67751;SDS011;54551;51.068;5.826;2022-07-06T14:41:17;1.27;;;0.77;;
67751;SDS011;54551;51.068;5.826;2022-07-06T14:43:44;1.98;;;0.70;;
67751;SDS011;54551;51.068;5.826;2022-07-06T14:46:11;1.77;;;1.20;;
67751;SDS011;54551;51.068;5.826;2022-07-06T14:48:38;1.63;;;1.10;;
67751;SDS011;54551;51.068;5.826;2022-07-06T14:51:04;2.92;;;1.77;;
67751;SDS011;54551;51.068;5.826;2022-07-06T14:53:31;2.83;;;1.13;;
67751;SDS011;54551;51.068;5.826;2022-07-06T14:55:58;2.50;;;1.15;;